sensor_id;sensor_type;location;lat;lon;timestamp;pressure;altitude;pressure_sealevel;temperature
24278;BMP280;12394;42.692;23.314;2023-03-11T00:02:16;93242.75;;;10.82
24278;BMP280;12394;42.692;23.314;2023-03-11T00:04:42;93227.22;;;10.56
24278;BMP280;12394;42.692;23.314;2023-03-11T00:07:10;93250.88;;;10.53
24278;BMP280;12394;42.692;23.314;2023-03-11T00:09:36;93231.53;;;10.50
24278;BMP280;12394;42.692;23.314;2023-03-11T00:12:02;93249.41;;;10.30
24278;BMP280;12394;42.692;23.314;2023-03-11T00:14:28;93252.69;;;10.21
24278;BMP280;12394;42.692;23.314;2023-03-11T00:16:53;93243.66;;;10.22
24278;BMP280;12394;42.692;23.314;2023-03-11T00:19:19;93218.63;;;10.12
24278;BMP280;12394;42.692;23.314;2023-03-11T00:21:44;93229.28;;;10.05
24278;BMP280;12394;42.692;23.314;2023-03-11T00:24:10;93211.59;;;10.09
24278;BMP280;12394;42.692;23.314;2023-03-11T00:26:35;93217.69;;;10.06
24278;BMP280;12394;42.692;23.314;2023-03-11T00:29:01;93207.78;;;10.01
24278;BMP280;12394;42.692;23.314;2023-03-11T00:31:26;93213.00;;;10.01
24278;BMP280;12394;42.692;23.314;2023-03-11T00:33:52;93178.16;;;9.82
24278;BMP280;12394;42.692;23.314;2023-03-11T00:36:29;93200.75;;;10.11
24278;BMP280;12394;42.692;23.314;2023-03-11T00:38:59;93195.00;;;10.16
24278;BMP280;12394;42.692;23.314;2023-03-11T00:41:26;93211.03;;;10.27
24278;BMP280;12394;42.692;23.314;2023-03-11T00:43:52;93216.22;;;10.40
24278;BMP280;12394;42.692;23.314;2023-03-11T00:46:17;93188.97;;;10.28
24278;BMP280;12394;42.692;23.314;2023-03-11T00:48:42;93200.03;;;10.32
24278;BMP280;12394;42.692;23.314;2023-03-11T00:51:12;93199.63;;;10.34
24278;BMP280;12394;42.692;23.314;2023-03-11T00:53:38;93170.41;;;10.26
24278;BMP280;12394;42.692;23.314;2023-03-11T00:56:12;93157.50;;;10.32
24278;BMP280;12394;42.692;23.314;2023-03-11T00:58:39;93166.38;;;10.34
24278;BMP280;12394;42.692;23.314;2023-03-11T01:01:23;93166.38;;;10.34
24278;BMP280;12394;42.692;23.314;2023-03-11T01:03:48;93171.66;;;10.43
24278;BMP280;12394;42.692;23.314;2023-03-11T01:06:14;93170.31;;;10.39
24278;BMP280;12394;42.692;23.314;2023-03-11T01:08:40;93168.44;;;10.39
24278;BMP280;12394;42.692;23.314;2023-03-11T01:11:06;93162.31;;;10.33
24278;BMP280;12394;42.692;23.314;2023-03-11T01:13:33;93162.03;;;10.40
24278;BMP280;12394;42.692;23.314;2023-03-11T01:15:59;93143.47;;;10.38
24278;BMP280;12394;42.692;23.314;2023-03-11T01:18:25;93148.13;;;10.43
24278;BMP280;12394;42.692;23.314;2023-03-11T01:20:51;93144.38;;;10.44
24278;BMP280;12394;42.692;23.314;2023-03-11T01:23:17;93128.41;;;10.51
24278;BMP280;12394;42.692;23.314;2023-03-11T01:25:43;93115.91;;;10.46
24278;BMP280;12394;42.692;23.314;2023-03-11T01:28:09;93101.81;;;10.44
24278;BMP280;12394;42.692;23.314;2023-03-11T01:30:36;93105.75;;;10.48
24278;BMP280;12394;42.692;23.314;2023-03-11T01:33:03;93083.34;;;10.38
24278;BMP280;12394;42.692;23.314;2023-03-11T01:35:30;93093.28;;;10.52
24278;BMP280;12394;42.692;23.314;2023-03-11T01:37:56;93088.31;;;10.45
24278;BMP280;12394;42.692;23.314;2023-03-11T01:40:43;93095.84;;;10.43
24278;BMP280;12394;42.692;23.314;2023-03-11T01:48:34;93097.47;;;10.50
24278;BMP280;12394;42.692;23.314;2023-03-11T01:51:03;93094.56;;;10.48
24278;BMP280;12394;42.692;23.314;2023-03-11T01:53:29;93109.09;;;10.49
24278;BMP280;12394;42.692;23.314;2023-03-11T01:55:54;93103.06;;;10.30
24278;BMP280;12394;42.692;23.314;2023-03-11T01:58:24;93130.94;;;10.11
24278;BMP280;12394;42.692;23.314;2023-03-11T02:00:51;93117.41;;;10.04
24278;BMP280;12394;42.692;23.314;2023-03-11T02:03:21;93107.19;;;9.97
24278;BMP280;12394;42.692;23.314;2023-03-11T02:05:48;93105.13;;;9.92
24278;BMP280;12394;42.692;23.314;2023-03-11T02:08:16;93102.31;;;9.86
24278;BMP280;12394;42.692;23.314;2023-03-11T02:10:42;93120.91;;;9.88
24278;BMP280;12394;42.692;23.314;2023-03-11T02:13:09;93132.94;;;9.86
24278;BMP280;12394;42.692;23.314;2023-03-11T02:15:35;93136.56;;;9.88
24278;BMP280;12394;42.692;23.314;2023-03-11T02:18:02;93136.16;;;9.90
24278;BMP280;12394;42.692;23.314;2023-03-11T02:20:53;93146.78;;;9.95
24278;BMP280;12394;42.692;23.314;2023-03-11T02:23:24;93145.34;;;9.94
24278;BMP280;12394;42.692;23.314;2023-03-11T02:26:08;93150.50;;;10.07
24278;BMP280;12394;42.692;23.314;2023-03-11T02:28:37;93149.63;;;10.10
24278;BMP280;12394;42.692;23.314;2023-03-11T02:31:04;93153.84;;;10.07
24278;BMP280;12394;42.692;23.314;2023-03-11T02:33:31;93136.44;;;9.92
24278;BMP280;12394;42.692;23.314;2023-03-11T02:35:57;93151.97;;;10.08
24278;BMP280;12394;42.692;23.314;2023-03-11T02:38:23;93152.84;;;10.14
24278;BMP280;12394;42.692;23.314;2023-03-11T02:40:57;93135.56;;;10.07
24278;BMP280;12394;42.692;23.314;2023-03-11T02:43:49;93141.25;;;10.15
24278;BMP280;12394;42.692;23.314;2023-03-11T02:46:14;93145.16;;;10.10
24278;BMP280;12394;42.692;23.314;2023-03-11T02:48:40;93145.41;;;10.03
24278;BMP280;12394;42.692;23.314;2023-03-11T02:51:06;93141.13;;;9.97
24278;BMP280;12394;42.692;23.314;2023-03-11T02:53:35;93147.88;;;10.07
24278;BMP280;12394;42.692;23.314;2023-03-11T02:56:02;93131.34;;;10.10
24278;BMP280;12394;42.692;23.314;2023-03-11T02:58:27;93141.75;;;10.44
24278;BMP280;12394;42.692;23.314;2023-03-11T03:00:52;93147.06;;;10.62
24278;BMP280;12394;42.692;23.314;2023-03-11T03:03:18;93145.38;;;10.78
24278;BMP280;12394;42.692;23.314;2023-03-11T03:05:43;93141.34;;;10.86
24278;BMP280;12394;42.692;23.314;2023-03-11T03:08:10;93148.94;;;10.93
24278;BMP280;12394;42.692;23.314;2023-03-11T03:10:35;93149.53;;;10.97
24278;BMP280;12394;42.692;23.314;2023-03-11T03:13:01;93143.72;;;11.02
24278;BMP280;12394;42.692;23.314;2023-03-11T03:15:26;93146.34;;;11.02
24278;BMP280;12394;42.692;23.314;2023-03-11T03:17:51;93140.38;;;11.01
24278;BMP280;12394;42.692;23.314;2023-03-11T03:20:17;93150.13;;;11.01
24278;BMP280;12394;42.692;23.314;2023-03-11T03:22:43;93137.34;;;11.03
24278;BMP280;12394;42.692;23.314;2023-03-11T03:25:09;93163.00;;;11.26
24278;BMP280;12394;42.692;23.314;2023-03-11T03:27:35;93157.31;;;11.28
24278;BMP280;12394;42.692;23.314;2023-03-11T03:30:01;93155.16;;;11.26
24278;BMP280;12394;42.692;23.314;2023-03-11T03:32:27;93156.88;;;11.29
24278;BMP280;12394;42.692;23.314;2023-03-11T03:34:53;93167.94;;;11.33
24278;BMP280;12394;42.692;23.314;2023-03-11T03:37:24;93160.38;;;11.26
24278;BMP280;12394;42.692;23.314;2023-03-11T03:39:50;93148.47;;;11.34
24278;BMP280;12394;42.692;23.314;2023-03-11T03:42:15;93157.34;;;11.46
24278;BMP280;12394;42.692;23.314;2023-03-11T03:44:41;93159.72;;;11.53
24278;BMP280;12394;42.692;23.314;2023-03-11T03:47:06;93151.84;;;11.44
24278;BMP280;12394;42.692;23.314;2023-03-11T03:49:31;93154.72;;;11.46
24278;BMP280;12394;42.692;23.314;2023-03-11T03:51:57;93152.25;;;11.42
24278;BMP280;12394;42.692;23.314;2023-03-11T03:54:22;93157.22;;;11.49
24278;BMP280;12394;42.692;23.314;2023-03-11T03:56:48;93145.72;;;11.56
24278;BMP280;12394;42.692;23.314;2023-03-11T03:59:13;93141.22;;;11.47
24278;BMP280;12394;42.692;23.314;2023-03-11T04:01:38;93136.00;;;11.56
24278;BMP280;12394;42.692;23.314;2023-03-11T04:04:04;93141.22;;;11.66
24278;BMP280;12394;42.692;23.314;2023-03-11T04:06:29;93140.66;;;11.62
24278;BMP280;12394;42.692;23.314;2023-03-11T04:08:55;93143.69;;;11.60
24278;BMP280;12394;42.692;23.314;2023-03-11T04:11:20;93145.00;;;11.46
24278;BMP280;12394;42.692;23.314;2023-03-11T04:13:46;93135.53;;;11.40
24278;BMP280;12394;42.692;23.314;2023-03-11T04:16:16;93139.75;;;11.46
24278;BMP280;12394;42.692;23.314;2023-03-11T04:18:43;93142.53;;;11.52
24278;BMP280;12394;42.692;23.314;2023-03-11T04:21:08;93133.78;;;11.46
24278;BMP280;12394;42.692;23.314;2023-03-11T04:23:34;93117.91;;;11.31
24278;BMP280;12394;42.692;23.314;2023-03-11T04:25:59;93155.88;;;11.45
24278;BMP280;12394;42.692;23.314;2023-03-11T04:28:25;93154.16;;;11.42
24278;BMP280;12394;42.692;23.314;2023-03-11T04:30:50;93151.84;;;11.44
24278;BMP280;12394;42.692;23.314;2023-03-11T04:33:16;93151.84;;;11.62
24278;BMP280;12394;42.692;23.314;2023-03-11T04:35:41;93158.84;;;11.65
24278;BMP280;12394;42.692;23.314;2023-03-11T04:38:07;93158.41;;;11.67
24278;BMP280;12394;42.692;23.314;2023-03-11T04:40:32;93150.25;;;11.55
24278;BMP280;12394;42.692;23.314;2023-03-11T04:42:58;93156.38;;;11.62
24278;BMP280;12394;42.692;23.314;2023-03-11T04:45:23;93160.44;;;11.53
24278;BMP280;12394;42.692;23.314;2023-03-11T04:47:50;93153.56;;;11.47
24278;BMP280;12394;42.692;23.314;2023-03-11T04:50:17;93151.69;;;11.38
24278;BMP280;12394;42.692;23.314;2023-03-11T04:52:42;93156.50;;;11.58
24278;BMP280;12394;42.692;23.314;2023-03-11T04:55:08;93152.44;;;11.57
24278;BMP280;12394;42.692;23.314;2023-03-11T04:57:34;93162.44;;;11.58
24278;BMP280;12394;42.692;23.314;2023-03-11T04:59:59;93153.28;;;11.54
24278;BMP280;12394;42.692;23.314;2023-03-11T05:02:25;93176.16;;;11.53
24278;BMP280;12394;42.692;23.314;2023-03-11T05:04:50;93177.44;;;11.49
24278;BMP280;12394;42.692;23.314;2023-03-11T05:07:16;93174.66;;;11.43
24278;BMP280;12394;42.692;23.314;2023-03-11T05:09:41;93175.84;;;11.51
24278;BMP280;12394;42.692;23.314;2023-03-11T05:12:10;93179.63;;;11.50
24278;BMP280;12394;42.692;23.314;2023-03-11T05:14:36;93184.13;;;11.59
24278;BMP280;12394;42.692;23.314;2023-03-11T05:17:01;93180.34;;;11.60
24278;BMP280;12394;42.692;23.314;2023-03-11T05:19:27;93177.59;;;11.64
24278;BMP280;12394;42.692;23.314;2023-03-11T05:21:55;93188.81;;;11.64
24278;BMP280;12394;42.692;23.314;2023-03-11T05:24:21;93197.25;;;11.68
24278;BMP280;12394;42.692;23.314;2023-03-11T05:26:46;93202.34;;;11.63
24278;BMP280;12394;42.692;23.314;2023-03-11T05:29:13;93200.72;;;11.56
24278;BMP280;12394;42.692;23.314;2023-03-11T05:31:38;93194.88;;;11.43
24278;BMP280;12394;42.692;23.314;2023-03-11T05:34:04;93203.59;;;11.40
24278;BMP280;12394;42.692;23.314;2023-03-11T05:36:30;93212.06;;;11.44
24278;BMP280;12394;42.692;23.314;2023-03-11T05:38:55;93203.34;;;11.56
24278;BMP280;12394;42.692;23.314;2023-03-11T05:41:20;93212.91;;;11.50
24278;BMP280;12394;42.692;23.314;2023-03-11T05:43:46;93221.28;;;11.67
24278;BMP280;12394;42.692;23.314;2023-03-11T05:46:11;93220.41;;;11.70
24278;BMP280;12394;42.692;23.314;2023-03-11T05:48:37;93221.28;;;11.67
24278;BMP280;12394;42.692;23.314;2023-03-11T05:51:10;93225.50;;;11.73
24278;BMP280;12394;42.692;23.314;2023-03-11T05:53:35;93236.41;;;11.72
24278;BMP280;12394;42.692;23.314;2023-03-11T05:56:01;93236.84;;;11.70
24278;BMP280;12394;42.692;23.314;2023-03-11T05:58:28;93237.31;;;11.87
24278;BMP280;12394;42.692;23.314;2023-03-11T06:00:53;93244.75;;;11.79
24278;BMP280;12394;42.692;23.314;2023-03-11T06:03:19;93251.00;;;11.82
24278;BMP280;12394;42.692;23.314;2023-03-11T06:05:46;93263.09;;;11.88
24278;BMP280;12394;42.692;23.314;2023-03-11T06:08:11;93263.81;;;11.80
24278;BMP280;12394;42.692;23.314;2023-03-11T06:10:37;93253.28;;;11.71
24278;BMP280;12394;42.692;23.314;2023-03-11T06:13:02;93268.88;;;11.74
24278;BMP280;12394;42.692;23.314;2023-03-11T06:15:28;93266.53;;;11.67
24278;BMP280;12394;42.692;23.314;2023-03-11T06:17:53;93250.50;;;11.65
24278;BMP280;12394;42.692;23.314;2023-03-11T06:20:19;93266.63;;;11.64
24278;BMP280;12394;42.692;23.314;2023-03-11T06:22:47;93262.44;;;11.66
24278;BMP280;12394;42.692;23.314;2023-03-11T06:25:13;93272.19;;;11.66
24278;BMP280;12394;42.692;23.314;2023-03-11T06:27:39;93268.41;;;11.67
24278;BMP280;12394;42.692;23.314;2023-03-11T06:30:05;93255.56;;;11.50
24278;BMP280;12394;42.692;23.314;2023-03-11T06:32:31;93263.44;;;11.59
24278;BMP280;12394;42.692;23.314;2023-03-11T06:34:58;93276.66;;;11.56
24278;BMP280;12394;42.692;23.314;2023-03-11T06:37:23;93266.38;;;11.62
24278;BMP280;12394;42.692;23.314;2023-03-11T06:39:53;93258.50;;;11.62
24278;BMP280;12394;42.692;23.314;2023-03-11T06:42:19;93272.91;;;11.66
24278;BMP280;12394;42.692;23.314;2023-03-11T06:44:46;93271.81;;;11.76
24278;BMP280;12394;42.692;23.314;2023-03-11T06:47:12;93270.53;;;11.81
24278;BMP280;12394;42.692;23.314;2023-03-11T06:49:38;93261.34;;;11.76
24278;BMP280;12394;42.692;23.314;2023-03-11T06:52:05;93277.53;;;11.93
24278;BMP280;12394;42.692;23.314;2023-03-11T06:54:31;93271.56;;;12.01
24278;BMP280;12394;42.692;23.314;2023-03-11T06:56:56;93260.91;;;11.87
24278;BMP280;12394;42.692;23.314;2023-03-11T06:59:21;93283.66;;;11.99
24278;BMP280;12394;42.692;23.314;2023-03-11T07:01:47;93275.34;;;12.00
24278;BMP280;12394;42.692;23.314;2023-03-11T07:04:12;93281.31;;;12.01
24278;BMP280;12394;42.692;23.314;2023-03-11T07:06:38;93287.56;;;11.94
24278;BMP280;12394;42.692;23.314;2023-03-11T07:09:03;93263.25;;;11.94
24278;BMP280;12394;42.692;23.314;2023-03-11T07:11:29;93277.53;;;12.02
24278;BMP280;12394;42.692;23.314;2023-03-11T07:13:54;93275.81;;;12.08
24278;BMP280;12394;42.692;23.314;2023-03-11T07:16:25;93267.81;;;12.30
24278;BMP280;12394;42.692;23.314;2023-03-11T07:18:53;93243.31;;;12.15
24278;BMP280;12394;42.692;23.314;2023-03-11T07:21:20;93271.16;;;12.39
24278;BMP280;12394;42.692;23.314;2023-03-11T07:23:46;93273.06;;;12.39
24278;BMP280;12394;42.692;23.314;2023-03-11T07:26:14;93269.69;;;12.47
24278;BMP280;12394;42.692;23.314;2023-03-11T07:28:40;93254.69;;;12.48
24278;BMP280;12394;42.692;23.314;2023-03-11T07:31:08;93266.91;;;12.69
24278;BMP280;12394;42.692;23.314;2023-03-11T07:33:34;93257.44;;;12.81
24278;BMP280;12394;42.692;23.314;2023-03-11T07:36:04;93245.88;;;12.87
24278;BMP280;12394;42.692;23.314;2023-03-11T07:38:29;93246.59;;;12.97
24278;BMP280;12394;42.692;23.314;2023-03-11T07:40:58;93244.06;;;13.54
24278;BMP280;12394;42.692;23.314;2023-03-11T07:43:23;93249.25;;;14.58
24278;BMP280;12394;42.692;23.314;2023-03-11T07:45:49;93244.28;;;15.68
24278;BMP280;12394;42.692;23.314;2023-03-11T07:48:15;93240.09;;;16.37
24278;BMP280;12394;42.692;23.314;2023-03-11T07:50:41;93244.16;;;17.41
24278;BMP280;12394;42.692;23.314;2023-03-11T07:53:06;93243.91;;;19.17
24278;BMP280;12394;42.692;23.314;2023-03-11T07:55:32;93233.00;;;20.91
24278;BMP280;12394;42.692;23.314;2023-03-11T07:57:58;93226.41;;;21.87
24278;BMP280;12394;42.692;23.314;2023-03-11T08:00:24;93220.72;;;22.82
24278;BMP280;12394;42.692;23.314;2023-03-11T08:02:49;93214.50;;;23.25
24278;BMP280;12394;42.692;23.314;2023-03-11T08:05:15;93205.47;;;23.86
24278;BMP280;12394;42.692;23.314;2023-03-11T08:07:40;93202.75;;;24.52
24278;BMP280;12394;42.692;23.314;2023-03-11T08:10:07;93167.81;;;25.25
24278;BMP280;12394;42.692;23.314;2023-03-11T08:12:32;93185.84;;;25.74
24278;BMP280;12394;42.692;23.314;2023-03-11T08:14:58;93183.19;;;25.81
24278;BMP280;12394;42.692;23.314;2023-03-11T08:17:23;93177.75;;;25.45
24278;BMP280;12394;42.692;23.314;2023-03-11T08:19:49;93172.50;;;24.91
24278;BMP280;12394;42.692;23.314;2023-03-11T08:22:14;93170.59;;;24.31
24278;BMP280;12394;42.692;23.314;2023-03-11T08:24:39;93162.91;;;25.16
24278;BMP280;12394;42.692;23.314;2023-03-11T08:27:05;93155.38;;;25.56
24278;BMP280;12394;42.692;23.314;2023-03-11T08:29:30;93162.00;;;25.62
24278;BMP280;12394;42.692;23.314;2023-03-11T08:31:56;93139.72;;;26.03
24278;BMP280;12394;42.692;23.314;2023-03-11T08:34:22;93156.16;;;26.00
24278;BMP280;12394;42.692;23.314;2023-03-11T08:36:48;93148.44;;;26.25
24278;BMP280;12394;42.692;23.314;2023-03-11T08:39:13;93158.94;;;26.74
24278;BMP280;12394;42.692;23.314;2023-03-11T08:41:38;93141.69;;;28.13
24278;BMP280;12394;42.692;23.314;2023-03-11T08:44:05;93144.66;;;29.30
24278;BMP280;12394;42.692;23.314;2023-03-11T08:46:33;93136.13;;;29.41
24278;BMP280;12394;42.692;23.314;2023-03-11T08:48:58;93123.09;;;30.06
24278;BMP280;12394;42.692;23.314;2023-03-11T08:51:24;93127.81;;;30.32
24278;BMP280;12394;42.692;23.314;2023-03-11T08:53:51;93117.41;;;30.46
24278;BMP280;12394;42.692;23.314;2023-03-11T08:56:17;93123.84;;;29.65
24278;BMP280;12394;42.692;23.314;2023-03-11T08:58:43;93135.31;;;30.78
24278;BMP280;12394;42.692;23.314;2023-03-11T09:01:10;93114.88;;;30.31
24278;BMP280;12394;42.692;23.314;2023-03-11T09:03:36;93135.56;;;30.72
24278;BMP280;12394;42.692;23.314;2023-03-11T09:06:08;93110.50;;;31.35
24278;BMP280;12394;42.692;23.314;2023-03-11T09:08:35;93128.06;;;29.75
24278;BMP280;12394;42.692;23.314;2023-03-11T09:11:01;93109.41;;;28.53
24278;BMP280;12394;42.692;23.314;2023-03-11T09:13:26;93118.41;;;29.05
24278;BMP280;12394;42.692;23.314;2023-03-11T09:15:52;93116.78;;;30.65
24278;BMP280;12394;42.692;23.314;2023-03-11T09:18:18;93110.72;;;31.85
24278;BMP280;12394;42.692;23.314;2023-03-11T09:20:44;93113.84;;;30.26
24278;BMP280;12394;42.692;23.314;2023-03-11T09:23:11;93110.16;;;31.12
24278;BMP280;12394;42.692;23.314;2023-03-11T09:25:37;93101.53;;;30.86
24278;BMP280;12394;42.692;23.314;2023-03-11T09:28:03;93106.06;;;30.48
24278;BMP280;12394;42.692;23.314;2023-03-11T09:30:29;93098.38;;;32.11
24278;BMP280;12394;42.692;23.314;2023-03-11T09:32:54;93094.50;;;33.24
24278;BMP280;12394;42.692;23.314;2023-03-11T09:35:20;93084.25;;;33.13
24278;BMP280;12394;42.692;23.314;2023-03-11T09:37:45;93092.63;;;31.49
24278;BMP280;12394;42.692;23.314;2023-03-11T09:40:21;93084.06;;;32.39
24278;BMP280;12394;42.692;23.314;2023-03-11T09:43:01;93079.56;;;32.13
24278;BMP280;12394;42.692;23.314;2023-03-11T09:45:31;93083.84;;;31.97
24278;BMP280;12394;42.692;23.314;2023-03-11T09:50:42;93080.28;;;28.35
24278;BMP280;12394;42.692;23.314;2023-03-11T09:53:20;93083.31;;;28.71
24278;BMP280;12394;42.692;23.314;2023-03-11T09:55:55;93081.13;;;28.05
24278;BMP280;12394;42.692;23.314;2023-03-11T10:00:53;93079.88;;;31.04
24278;BMP280;12394;42.692;23.314;2023-03-11T10:05:57;93065.13;;;30.78
24278;BMP280;12394;42.692;23.314;2023-03-11T10:08:33;93083.91;;;30.32
24278;BMP280;12394;42.692;23.314;2023-03-11T10:11:15;93090.56;;;30.75
24278;BMP280;12394;42.692;23.314;2023-03-11T10:14:00;93094.13;;;29.13
24278;BMP280;12394;42.692;23.314;2023-03-11T10:16:40;93086.66;;;29.63
24278;BMP280;12394;42.692;23.314;2023-03-11T10:26:58;93087.13;;;21.79
24278;BMP280;12394;42.692;23.314;2023-03-11T10:29:33;93087.50;;;21.46
24278;BMP280;12394;42.692;23.314;2023-03-11T10:38:31;93086.31;;;19.01
24278;BMP280;12394;42.692;23.314;2023-03-11T10:41:02;93081.00;;;18.90
24278;BMP280;12394;42.692;23.314;2023-03-11T10:43:36;93083.91;;;18.25
24278;BMP280;12394;42.692;23.314;2023-03-11T10:46:17;93086.44;;;17.75
24278;BMP280;12394;42.692;23.314;2023-03-11T10:48:43;93095.31;;;17.24
24278;BMP280;12394;42.692;23.314;2023-03-11T10:51:15;93091.41;;;17.14
24278;BMP280;12394;42.692;23.314;2023-03-11T10:53:46;93097.53;;;16.88
24278;BMP280;12394;42.692;23.314;2023-03-11T10:56:38;93101.97;;;16.71
24278;BMP280;12394;42.692;23.314;2023-03-11T10:59:17;93098.44;;;16.54
24278;BMP280;12394;42.692;23.314;2023-03-11T11:01:59;93110.19;;;16.53
24278;BMP280;12394;42.692;23.314;2023-03-11T11:04:37;93061.63;;;16.39
24278;BMP280;12394;42.692;23.314;2023-03-11T11:07:39;93111.47;;;16.95
24278;BMP280;12394;42.692;23.314;2023-03-11T11:15:34;93098.13;;;18.78
24278;BMP280;12394;42.692;23.314;2023-03-11T11:18:02;93101.03;;;19.82
24278;BMP280;12394;42.692;23.314;2023-03-11T11:20:32;93087.56;;;20.21
24278;BMP280;12394;42.692;23.314;2023-03-11T11:23:02;93076.63;;;19.89
24278;BMP280;12394;42.692;23.314;2023-03-11T11:25:38;93086.25;;;19.23
24278;BMP280;12394;42.692;23.314;2023-03-11T11:28:16;93063.00;;;18.66
24278;BMP280;12394;42.692;23.314;2023-03-11T11:31:00;93071.13;;;18.23
24278;BMP280;12394;42.692;23.314;2023-03-11T11:33:38;93048.53;;;18.39
24278;BMP280;12394;42.692;23.314;2023-03-11T11:36:11;93046.34;;;18.15
24278;BMP280;12394;42.692;23.314;2023-03-11T11:38:38;93056.84;;;17.65
24278;BMP280;12394;42.692;23.314;2023-03-11T11:41:04;93054.31;;;17.45
24278;BMP280;12394;42.692;23.314;2023-03-11T11:43:51;93045.81;;;17.19
24278;BMP280;12394;42.692;23.314;2023-03-11T11:46:27;93048.06;;;16.95
24278;BMP280;12394;42.692;23.314;2023-03-11T11:49:20;93036.47;;;16.81
24278;BMP280;12394;42.692;23.314;2023-03-11T11:51:50;93028.78;;;16.77
24278;BMP280;12394;42.692;23.314;2023-03-11T11:54:29;93014.66;;;16.80
24278;BMP280;12394;42.692;23.314;2023-03-11T11:57:00;93025.72;;;17.38
24278;BMP280;12394;42.692;23.314;2023-03-11T11:59:33;93028.75;;;17.90
24278;BMP280;12394;42.692;23.314;2023-03-11T12:02:23;93009.28;;;18.27
24278;BMP280;12394;42.692;23.314;2023-03-11T12:05:16;93013.41;;;18.55
24278;BMP280;12394;42.692;23.314;2023-03-11T12:08:08;93012.66;;;18.33
24278;BMP280;12394;42.692;23.314;2023-03-11T12:11:05;93006.41;;;18.30
24278;BMP280;12394;42.692;23.314;2023-03-11T12:13:56;92998.66;;;18.77
24278;BMP280;12394;42.692;23.314;2023-03-11T12:24:28;92990.75;;;18.10
24278;BMP280;12394;42.692;23.314;2023-03-11T12:27:10;92988.09;;;17.82
24278;BMP280;12394;42.692;23.314;2023-03-11T12:29:41;93010.72;;;18.05
24278;BMP280;12394;42.692;23.314;2023-03-11T12:32:21;93019.38;;;18.17
24278;BMP280;12394;42.692;23.314;2023-03-11T12:34:48;93003.47;;;17.78
24278;BMP280;12394;42.692;23.314;2023-03-11T12:37:17;93007.28;;;17.60
24278;BMP280;12394;42.692;23.314;2023-03-11T12:39:46;92993.84;;;17.05
24278;BMP280;12394;42.692;23.314;2023-03-11T12:42:20;93021.63;;;16.83
24278;BMP280;12394;42.692;23.314;2023-03-11T12:44:47;93003.66;;;16.56
24278;BMP280;12394;42.692;23.314;2023-03-11T12:49:47;93009.13;;;16.16
24278;BMP280;12394;42.692;23.314;2023-03-11T12:57:36;93026.44;;;15.65
24278;BMP280;12394;42.692;23.314;2023-03-11T13:10:57;93058.56;;;15.29
24278;BMP280;12394;42.692;23.314;2023-03-11T13:18:37;93064.03;;;15.05
24278;BMP280;12394;42.692;23.314;2023-03-11T13:21:04;93090.47;;;14.96
24278;BMP280;12394;42.692;23.314;2023-03-11T13:23:49;93103.88;;;14.63
24278;BMP280;12394;42.692;23.314;2023-03-11T13:26:16;93114.41;;;14.34
24278;BMP280;12394;42.692;23.314;2023-03-11T13:41:48;93147.50;;;12.83
24278;BMP280;12394;42.692;23.314;2023-03-11T13:46:46;93156.06;;;12.41
24278;BMP280;12394;42.692;23.314;2023-03-11T13:49:31;93166.16;;;12.25
24278;BMP280;12394;42.692;23.314;2023-03-11T13:51:59;93181.72;;;12.19
24278;BMP280;12394;42.692;23.314;2023-03-11T13:54:33;93173.28;;;12.24
24278;BMP280;12394;42.692;23.314;2023-03-11T13:57:02;93171.66;;;12.18
24278;BMP280;12394;42.692;23.314;2023-03-11T13:59:29;93159.88;;;12.13
24278;BMP280;12394;42.692;23.314;2023-03-11T14:01:58;93147.66;;;12.10
24278;BMP280;12394;42.692;23.314;2023-03-11T14:04:30;93129.47;;;12.16
24278;BMP280;12394;42.692;23.314;2023-03-11T14:06:57;93145.88;;;12.34
24278;BMP280;12394;42.692;23.314;2023-03-11T14:09:26;93154.00;;;12.45
24278;BMP280;12394;42.692;23.314;2023-03-11T14:11:53;93157.63;;;12.57
24278;BMP280;12394;42.692;23.314;2023-03-11T14:14:42;93144.63;;;12.72
24278;BMP280;12394;42.692;23.314;2023-03-11T14:17:14;93164.00;;;12.74
24278;BMP280;12394;42.692;23.314;2023-03-11T14:19:41;93166.44;;;12.78
24278;BMP280;12394;42.692;23.314;2023-03-11T14:22:08;93173.16;;;12.79
24278;BMP280;12394;42.692;23.314;2023-03-11T14:24:34;93158.50;;;12.54
24278;BMP280;12394;42.692;23.314;2023-03-11T14:27:01;93174.25;;;12.45
24278;BMP280;12394;42.692;23.314;2023-03-11T14:29:33;93179.25;;;12.25
24278;BMP280;12394;42.692;23.314;2023-03-11T14:31:59;93169.91;;;12.24
24278;BMP280;12394;42.692;23.314;2023-03-11T14:34:27;93165.13;;;12.04
24278;BMP280;12394;42.692;23.314;2023-03-11T14:36:56;93171.66;;;12.09
24278;BMP280;12394;42.692;23.314;2023-03-11T14:41:49;93167.75;;;11.95
24278;BMP280;12394;42.692;23.314;2023-03-11T14:44:16;93174.59;;;11.92
24278;BMP280;12394;42.692;23.314;2023-03-11T14:46:42;93188.28;;;11.96
24278;BMP280;12394;42.692;23.314;2023-03-11T14:49:15;93192.63;;;11.99
24278;BMP280;12394;42.692;23.314;2023-03-11T14:51:42;93194.25;;;12.06
24278;BMP280;12394;42.692;23.314;2023-03-11T14:54:17;93191.19;;;12.08
24278;BMP280;12394;42.692;23.314;2023-03-11T14:56:53;93202.53;;;12.14
24278;BMP280;12394;42.692;23.314;2023-03-11T14:59:22;93219.56;;;12.00
24278;BMP280;12394;42.692;23.314;2023-03-11T15:01:52;93226.41;;;11.79
24278;BMP280;12394;42.692;23.314;2023-03-11T15:04:31;93233.28;;;11.46
24278;BMP280;12394;42.692;23.314;2023-03-11T15:06:58;93235.09;;;11.27
24278;BMP280;12394;42.692;23.314;2023-03-11T15:09:26;93244.63;;;11.03
24278;BMP280;12394;42.692;23.314;2023-03-11T15:11:54;93251.09;;;10.89
24278;BMP280;12394;42.692;23.314;2023-03-11T15:14:48;93258.38;;;10.73
24278;BMP280;12394;42.692;23.314;2023-03-11T15:17:23;93251.09;;;10.67
24278;BMP280;12394;42.692;23.314;2023-03-11T15:19:55;93270.44;;;10.70
24278;BMP280;12394;42.692;23.314;2023-03-11T15:22:30;93263.28;;;10.61
24278;BMP280;12394;42.692;23.314;2023-03-11T15:25:00;93283.41;;;10.74
24278;BMP280;12394;42.692;23.314;2023-03-11T15:27:35;93283.25;;;10.77
24278;BMP280;12394;42.692;23.314;2023-03-11T15:30:13;93286.78;;;10.83